createdAt,value
2022-08-04T00:00:51.608Z,14.00146484375
2022-08-04T00:10:51.547Z,14.599609375
2022-08-04T00:20:51.505Z,14.599609375
2022-08-04T00:30:51.379Z,15.5029296875
2022-08-04T00:40:51.309Z,16.39404296875
2022-08-04T00:50:51.235Z,15.6982421875
2022-08-04T01:00:51.180Z,15.19775390625
2022-08-04T01:10:51.105Z,16.39404296875
2022-08-04T01:20:51.019Z,16.89453125
2022-08-04T01:30:50.938Z,16.29638671875
2022-08-04T01:40:50.886Z,16.89453125
2022-08-04T01:50:52.943Z,16.796875
2022-08-04T02:00:54.643Z,15.6982421875
2022-08-04T02:10:50.661Z,14.90478515625
2022-08-04T02:20:50.586Z,15.29541015625
2022-08-04T02:30:50.524Z,15.19775390625
2022-08-04T02:40:50.440Z,14.90478515625
2022-08-04T02:50:50.371Z,14.90478515625
2022-08-04T03:00:50.374Z,14.697265625
2022-08-04T03:10:50.225Z,14.29443359375
2022-08-04T03:20:50.160Z,14.09912109375
2022-08-04T03:30:50.105Z,13.90380859375
2022-08-04T03:40:49.999Z,13.6962890625
2022-08-04T03:50:49.945Z,13.5986328125
2022-08-04T04:00:49.885Z,13.5986328125
2022-08-04T04:10:49.803Z,13.5009765625
2022-08-04T04:20:49.732Z,13.5009765625
2022-08-04T04:30:49.660Z,13.4033203125
2022-08-04T04:40:49.594Z,13.3056640625
2022-08-04T04:50:49.508Z,13.19580078125
2022-08-04T05:00:49.433Z,13.09814453125
2022-08-04T05:10:49.365Z,13.19580078125
2022-08-04T05:20:49.286Z,12.90283203125
2022-08-04T05:30:49.222Z,12.90283203125
2022-08-04T05:40:49.139Z,13.00048828125
2022-08-04T05:50:49.080Z,13.00048828125
2022-08-04T06:00:52.414Z,12.90283203125
2022-08-04T06:10:48.938Z,12.80517578125
2022-08-04T06:20:50.192Z,12.90283203125
2022-08-04T06:30:48.788Z,12.80517578125
2022-08-04T06:40:48.736Z,12.80517578125
2022-08-04T06:51:24.985Z,12.6953125
2022-08-04T07:00:48.615Z,12.80517578125
2022-08-04T07:10:48.519Z,12.6953125
2022-08-04T07:20:48.432Z,12.59765625
2022-08-04T07:30:48.378Z,12.6953125
2022-08-04T07:40:48.309Z,12.80517578125
2022-08-04T07:50:49.040Z,12.6953125
2022-08-04T08:00:48.267Z,12.6953125
2022-08-04T08:10:48.196Z,12.59765625
2022-08-04T08:20:48.019Z,12.59765625
2022-08-04T08:30:52.574Z,12.59765625
2022-08-04T08:40:47.894Z,12.5
2022-08-04T08:50:47.804Z,12.5
2022-08-04T09:00:47.719Z,12.5
2022-08-04T09:10:47.665Z,12.5
2022-08-04T09:20:47.607Z,12.5
2022-08-04T09:30:47.526Z,12.59765625
2022-08-04T09:40:53.054Z,12.5
2022-08-04T09:50:50.484Z,12.40234375
2022-08-04T10:00:47.300Z,12.40234375
2022-08-04T10:10:47.240Z,12.298583984375
2022-08-04T10:20:50.872Z,12.298583984375
2022-08-04T10:30:47.094Z,12.200927734375
2022-08-04T10:40:47.026Z,12.200927734375
2022-08-04T10:50:46.966Z,11.99951171875
2022-08-04T11:00:46.876Z,12.09716796875
2022-08-04T11:10:46.934Z,11.99951171875
2022-08-04T11:20:46.744Z,12.200927734375
2022-08-04T11:30:46.793Z,12.200927734375
2022-08-04T11:41:02.690Z,12.40234375
2022-08-04T11:50:50.311Z,12.40234375
2022-08-04T12:00:46.465Z,12.298583984375
2022-08-04T12:10:46.386Z,12.40234375
2022-08-04T12:20:46.309Z,12.298583984375
2022-08-04T12:30:58.335Z,12.40234375
2022-08-04T12:40:46.187Z,12.40234375
2022-08-04T12:50:46.139Z,12.298583984375
2022-08-04T13:00:46.147Z,12.298583984375
2022-08-04T13:10:45.963Z,12.298583984375
2022-08-04T13:20:45.989Z,12.09716796875
2022-08-04T13:30:45.836Z,12.09716796875
2022-08-04T13:40:45.751Z,11.90185546875
2022-08-04T13:50:45.691Z,11.90185546875
2022-08-04T14:00:45.656Z,11.90185546875
2022-08-04T14:10:45.552Z,11.798095703125
2022-08-04T14:20:45.483Z,11.798095703125
2022-08-04T14:30:45.397Z,11.798095703125
2022-08-04T14:40:45.335Z,11.700439453125
2022-08-04T14:50:45.255Z,11.602783203125
2022-08-04T15:00:45.179Z,11.602783203125
2022-08-04T15:10:45.098Z,11.602783203125
2022-08-04T15:20:45.046Z,11.4990234375
2022-08-04T15:30:44.990Z,11.700439453125
2022-08-04T15:40:44.908Z,11.602783203125
2022-08-04T15:50:44.833Z,11.602783203125
2022-08-04T16:00:44.758Z,11.602783203125
2022-08-04T16:10:44.690Z,11.4990234375
2022-08-04T16:20:44.614Z,11.4013671875
2022-08-04T16:30:44.558Z,11.4990234375
2022-08-04T16:40:44.470Z,11.4990234375
2022-08-04T16:50:44.415Z,11.4990234375
2022-08-04T17:00:44.335Z,11.4013671875
2022-08-04T17:10:44.270Z,11.4990234375
2022-08-04T17:20:58.945Z,11.4990234375
2022-08-04T17:30:51.251Z,11.700439453125
2022-08-04T17:40:44.049Z,11.602783203125
2022-08-04T17:50:44.000Z,11.798095703125
2022-08-04T18:00:43.895Z,11.798095703125
2022-08-04T18:10:55.369Z,11.99951171875
2022-08-04T18:20:43.757Z,11.90185546875
2022-08-04T18:30:56.127Z,11.90185546875
2022-08-04T18:40:52.843Z,11.90185546875
2022-08-04T18:51:09.741Z,11.90185546875
2022-08-04T19:00:45.732Z,11.99951171875
2022-08-04T19:10:43.398Z,12.09716796875
2022-08-04T19:20:43.339Z,12.09716796875
2022-08-04T19:30:43.258Z,12.298583984375
2022-08-04T19:40:43.195Z,12.298583984375
2022-08-04T19:50:43.124Z,12.5
2022-08-04T20:00:44.609Z,12.5
2022-08-04T20:10:46.957Z,12.298583984375
2022-08-04T20:20:42.916Z,12.298583984375
2022-08-04T20:30:42.849Z,12.40234375
2022-08-04T20:40:42.786Z,12.40234375
2022-08-04T20:50:42.705Z,12.40234375
2022-08-04T21:00:42.636Z,12.5
2022-08-04T21:10:42.551Z,12.5
2022-08-04T21:20:43.297Z,12.59765625
2022-08-04T21:30:54.052Z,12.6953125
2022-08-04T21:40:42.350Z,12.80517578125
2022-08-04T21:50:42.278Z,12.6953125
2022-08-04T22:00:42.322Z,12.80517578125
2022-08-04T22:10:42.118Z,13.00048828125
2022-08-04T22:20:42.068Z,13.19580078125
2022-08-04T22:30:52.012Z,13.09814453125
2022-08-04T22:40:41.916Z,13.3056640625
2022-08-04T22:50:41.858Z,13.3056640625
2022-08-04T23:00:41.865Z,13.5009765625
2022-08-04T23:10:41.697Z,13.6962890625
2022-08-04T23:20:41.632Z,13.90380859375
2022-08-04T23:30:41.574Z,14.09912109375
2022-08-04T23:40:50.429Z,14.29443359375
2022-08-04T23:50:41.428Z,13.7939453125
